sensor_id;sensor_type;location;lat;lon;timestamp;P1;durP1;ratioP1;P2;durP2;ratioP2
30462;SDS011;17256;43.618;25.336;2022-11-11T00:00:17;56.43;;;40.20;;
30462;SDS011;17256;43.618;25.336;2022-11-11T00:14:20;53.60;;;40.83;;
30462;SDS011;17256;43.618;25.336;2022-11-11T00:20:57;54.70;;;40.60;;
30462;SDS011;17256;43.618;25.336;2022-11-11T00:31:33;49.63;;;38.17;;
30462;SDS011;17256;43.618;25.336;2022-11-11T00:39:00;54.03;;;39.40;;
30462;SDS011;17256;43.618;25.336;2022-11-11T00:45:11;55.97;;;42.57;;
30462;SDS011;17256;43.618;25.336;2022-11-11T00:48:19;60.13;;;45.43;;
30462;SDS011;17256;43.618;25.336;2022-11-11T00:51:49;49.20;;;35.13;;
30462;SDS011;17256;43.618;25.336;2022-11-11T00:55:11;44.80;;;34.57;;
30462;SDS011;17256;43.618;25.336;2022-11-11T01:20:15;50.30;;;35.57;;
30462;SDS011;17256;43.618;25.336;2022-11-11T01:24:14;46.03;;;34.43;;
30462;SDS011;17256;43.618;25.336;2022-11-11T01:47:44;45.30;;;38.17;;
30462;SDS011;17256;43.618;25.336;2022-11-11T02:33:03;55.00;;;40.60;;
30462;SDS011;17256;43.618;25.336;2022-11-11T02:40:54;51.53;;;38.80;;
30462;SDS011;17256;43.618;25.336;2022-11-11T03:04:06;42.83;;;32.37;;
30462;SDS011;17256;43.618;25.336;2022-11-11T03:11:23;49.17;;;34.57;;
30462;SDS011;17256;43.618;25.336;2022-11-11T03:15:06;45.00;;;33.87;;
30462;SDS011;17256;43.618;25.336;2022-11-11T03:18:59;45.27;;;33.80;;
30462;SDS011;17256;43.618;25.336;2022-11-11T03:23:12;37.00;;;30.80;;
30462;SDS011;17256;43.618;25.336;2022-11-11T03:30:20;44.50;;;33.77;;
30462;SDS011;17256;43.618;25.336;2022-11-11T03:56:49;38.90;;;30.33;;
30462;SDS011;17256;43.618;25.336;2022-11-11T04:16:47;44.20;;;32.37;;
30462;SDS011;17256;43.618;25.336;2022-11-11T04:24:19;40.83;;;30.90;;
30462;SDS011;17256;43.618;25.336;2022-11-11T04:39:47;36.57;;;29.17;;
30462;SDS011;17256;43.618;25.336;2022-11-11T04:43:58;39.90;;;28.77;;
30462;SDS011;17256;43.618;25.336;2022-11-11T04:51:11;36.53;;;29.87;;
30462;SDS011;17256;43.618;25.336;2022-11-11T04:54:02;37.73;;;29.10;;
30462;SDS011;17256;43.618;25.336;2022-11-11T04:56:47;36.23;;;29.80;;
30462;SDS011;17256;43.618;25.336;2022-11-11T04:59:32;36.47;;;27.87;;
30462;SDS011;17256;43.618;25.336;2022-11-11T05:02:17;34.13;;;27.67;;
30462;SDS011;17256;43.618;25.336;2022-11-11T05:05:20;31.60;;;26.80;;
30462;SDS011;17256;43.618;25.336;2022-11-11T05:08:06;33.60;;;26.70;;
30462;SDS011;17256;43.618;25.336;2022-11-11T05:11:10;32.20;;;26.83;;
30462;SDS011;17256;43.618;25.336;2022-11-11T05:25:50;32.97;;;27.10;;
30462;SDS011;17256;43.618;25.336;2022-11-11T05:29:22;34.37;;;27.30;;
30462;SDS011;17256;43.618;25.336;2022-11-11T05:32:28;39.67;;;29.00;;
30462;SDS011;17256;43.618;25.336;2022-11-11T05:39:23;43.70;;;33.57;;
30462;SDS011;17256;43.618;25.336;2022-11-11T05:42:13;41.07;;;31.50;;
30462;SDS011;17256;43.618;25.336;2022-11-11T05:45:40;37.47;;;29.77;;
30462;SDS011;17256;43.618;25.336;2022-11-11T07:11:24;64.53;;;48.20;;
30462;SDS011;17256;43.618;25.336;2022-11-11T08:29:10;61.17;;;47.87;;
30462;SDS011;17256;43.618;25.336;2022-11-11T08:36:09;56.03;;;45.53;;
30462;SDS011;17256;43.618;25.336;2022-11-11T08:39:11;52.30;;;43.10;;
30462;SDS011;17256;43.618;25.336;2022-11-11T08:42:46;54.50;;;42.57;;
30462;SDS011;17256;43.618;25.336;2022-11-11T08:45:38;61.43;;;49.73;;
30462;SDS011;17256;43.618;25.336;2022-11-11T08:48:27;93.07;;;70.00;;
30462;SDS011;17256;43.618;25.336;2022-11-11T08:51:53;62.97;;;50.43;;
30462;SDS011;17256;43.618;25.336;2022-11-11T09:02:08;68.60;;;53.33;;
30462;SDS011;17256;43.618;25.336;2022-11-11T09:08:56;64.53;;;46.53;;
30462;SDS011;17256;43.618;25.336;2022-11-11T09:15:54;65.43;;;44.87;;
30462;SDS011;17256;43.618;25.336;2022-11-11T09:23:31;62.47;;;45.30;;
30462;SDS011;17256;43.618;25.336;2022-11-11T10:33:15;33.07;;;25.53;;
30462;SDS011;17256;43.618;25.336;2022-11-11T10:37:40;40.93;;;30.13;;
30462;SDS011;17256;43.618;25.336;2022-11-11T10:49:21;32.50;;;26.70;;
30462;SDS011;17256;43.618;25.336;2022-11-11T11:04:01;29.40;;;23.63;;
30462;SDS011;17256;43.618;25.336;2022-11-11T11:07:45;31.20;;;24.60;;
30462;SDS011;17256;43.618;25.336;2022-11-11T11:15:24;35.20;;;25.50;;
30462;SDS011;17256;43.618;25.336;2022-11-11T11:26:41;28.83;;;22.47;;
30462;SDS011;17256;43.618;25.336;2022-11-11T11:30:17;33.50;;;25.73;;
30462;SDS011;17256;43.618;25.336;2022-11-11T12:23:37;8.93;;;8.03;;
30462;SDS011;17256;43.618;25.336;2022-11-11T12:29:58;10.00;;;8.97;;
30462;SDS011;17256;43.618;25.336;2022-11-11T12:47:48;6.40;;;4.30;;
30462;SDS011;17256;43.618;25.336;2022-11-11T12:55:08;4.20;;;3.77;;
30462;SDS011;17256;43.618;25.336;2022-11-11T13:12:56;9.93;;;9.07;;
30462;SDS011;17256;43.618;25.336;2022-11-11T13:16:02;10.03;;;6.43;;
30462;SDS011;17256;43.618;25.336;2022-11-11T13:22:48;9.13;;;7.30;;
30462;SDS011;17256;43.618;25.336;2022-11-11T13:25:37;7.00;;;6.00;;
30462;SDS011;17256;43.618;25.336;2022-11-11T13:28:33;5.73;;;4.70;;
30462;SDS011;17256;43.618;25.336;2022-11-11T13:32:32;6.73;;;5.70;;
30462;SDS011;17256;43.618;25.336;2022-11-11T13:39:52;9.30;;;7.83;;
30462;SDS011;17256;43.618;25.336;2022-11-11T13:46:46;14.30;;;10.63;;
30462;SDS011;17256;43.618;25.336;2022-11-11T13:53:31;12.10;;;9.53;;
30462;SDS011;17256;43.618;25.336;2022-11-11T14:00:57;11.90;;;9.77;;
30462;SDS011;17256;43.618;25.336;2022-11-11T14:03:58;12.93;;;9.80;;
30462;SDS011;17256;43.618;25.336;2022-11-11T14:07:47;16.10;;;10.67;;
30462;SDS011;17256;43.618;25.336;2022-11-11T14:10:53;11.73;;;8.43;;
30462;SDS011;17256;43.618;25.336;2022-11-11T14:13:44;19.80;;;12.30;;
30462;SDS011;17256;43.618;25.336;2022-11-11T14:23:32;13.60;;;11.50;;
30462;SDS011;17256;43.618;25.336;2022-11-11T14:26:21;14.97;;;11.53;;
30462;SDS011;17256;43.618;25.336;2022-11-11T14:29:15;26.07;;;15.47;;
30462;SDS011;17256;43.618;25.336;2022-11-11T14:32:10;24.47;;;14.73;;
30462;SDS011;17256;43.618;25.336;2022-11-11T14:38:02;29.93;;;19.93;;
30462;SDS011;17256;43.618;25.336;2022-11-11T14:40:48;67.60;;;28.07;;
30462;SDS011;17256;43.618;25.336;2022-11-11T14:43:34;60.27;;;46.57;;
30462;SDS011;17256;43.618;25.336;2022-11-11T14:46:20;34.37;;;26.40;;
30462;SDS011;17256;43.618;25.336;2022-11-11T14:49:05;23.70;;;21.23;;
30462;SDS011;17256;43.618;25.336;2022-11-11T14:51:51;22.07;;;20.07;;
30462;SDS011;17256;43.618;25.336;2022-11-11T14:54:49;31.63;;;28.50;;
30462;SDS011;17256;43.618;25.336;2022-11-11T14:57:48;65.23;;;58.50;;
30462;SDS011;17256;43.618;25.336;2022-11-11T15:04:07;23.87;;;21.70;;
30462;SDS011;17256;43.618;25.336;2022-11-11T15:06:59;29.70;;;26.63;;
30462;SDS011;17256;43.618;25.336;2022-11-11T15:13:03;18.57;;;16.57;;
30462;SDS011;17256;43.618;25.336;2022-11-11T15:16:11;24.63;;;21.20;;
30462;SDS011;17256;43.618;25.336;2022-11-11T15:28:52;30.73;;;27.47;;
30462;SDS011;17256;43.618;25.336;2022-11-11T15:36:12;41.83;;;36.57;;
30462;SDS011;17256;43.618;25.336;2022-11-11T15:39:17;42.60;;;37.97;;
30462;SDS011;17256;43.618;25.336;2022-11-11T15:42:09;40.17;;;34.77;;
30462;SDS011;17256;43.618;25.336;2022-11-11T15:45:21;44.73;;;34.27;;
30462;SDS011;17256;43.618;25.336;2022-11-11T15:48:21;40.50;;;31.30;;
30462;SDS011;17256;43.618;25.336;2022-11-11T15:51:15;34.93;;;29.33;;
30462;SDS011;17256;43.618;25.336;2022-11-11T15:56:58;39.47;;;30.90;;
30462;SDS011;17256;43.618;25.336;2022-11-11T15:59:42;43.20;;;32.03;;
30462;SDS011;17256;43.618;25.336;2022-11-11T16:02:29;41.43;;;29.87;;
30462;SDS011;17256;43.618;25.336;2022-11-11T16:05:20;41.47;;;31.73;;
30462;SDS011;17256;43.618;25.336;2022-11-11T16:08:07;43.03;;;32.57;;
30462;SDS011;17256;43.618;25.336;2022-11-11T16:11:00;44.73;;;33.23;;
30462;SDS011;17256;43.618;25.336;2022-11-11T16:13:59;80.37;;;61.37;;
30462;SDS011;17256;43.618;25.336;2022-11-11T16:16:48;129.60;;;105.63;;
30462;SDS011;17256;43.618;25.336;2022-11-11T16:19:35;126.30;;;100.40;;
30462;SDS011;17256;43.618;25.336;2022-11-11T16:22:23;128.27;;;98.70;;
30462;SDS011;17256;43.618;25.336;2022-11-11T16:25:14;112.77;;;83.93;;
30462;SDS011;17256;43.618;25.336;2022-11-11T16:28:03;158.03;;;111.60;;
30462;SDS011;17256;43.618;25.336;2022-11-11T16:30:49;297.97;;;201.73;;
30462;SDS011;17256;43.618;25.336;2022-11-11T16:33:33;283.63;;;200.53;;
30462;SDS011;17256;43.618;25.336;2022-11-11T16:36:18;234.20;;;174.10;;
30462;SDS011;17256;43.618;25.336;2022-11-11T16:39:18;138.50;;;105.20;;
30462;SDS011;17256;43.618;25.336;2022-11-11T16:42:05;111.63;;;90.17;;
30462;SDS011;17256;43.618;25.336;2022-11-11T16:45:17;86.77;;;67.77;;
30462;SDS011;17256;43.618;25.336;2022-11-11T16:48:04;70.00;;;55.87;;
30462;SDS011;17256;43.618;25.336;2022-11-11T16:54:33;38.00;;;30.13;;
30462;SDS011;17256;43.618;25.336;2022-11-11T16:57:28;60.70;;;49.50;;
30462;SDS011;17256;43.618;25.336;2022-11-11T17:04:19;57.00;;;43.17;;
30462;SDS011;17256;43.618;25.336;2022-11-11T17:07:25;66.47;;;47.00;;
30462;SDS011;17256;43.618;25.336;2022-11-11T17:10:24;59.73;;;44.63;;
30462;SDS011;17256;43.618;25.336;2022-11-11T17:13:31;51.07;;;41.10;;
30462;SDS011;17256;43.618;25.336;2022-11-11T17:16:20;65.40;;;48.53;;
30462;SDS011;17256;43.618;25.336;2022-11-11T17:19:08;58.90;;;47.97;;
30462;SDS011;17256;43.618;25.336;2022-11-11T17:29:52;58.83;;;49.97;;
30462;SDS011;17256;43.618;25.336;2022-11-11T17:40:29;64.67;;;52.03;;
30462;SDS011;17256;43.618;25.336;2022-11-11T17:47:13;93.87;;;75.40;;
30462;SDS011;17256;43.618;25.336;2022-11-11T17:49:59;206.83;;;185.47;;
30462;SDS011;17256;43.618;25.336;2022-11-11T18:03:55;96.57;;;84.47;;
30462;SDS011;17256;43.618;25.336;2022-11-11T18:07:12;57.57;;;45.20;;
30462;SDS011;17256;43.618;25.336;2022-11-11T18:10:04;53.53;;;42.50;;
30462;SDS011;17256;43.618;25.336;2022-11-11T18:12:49;46.73;;;40.03;;
30462;SDS011;17256;43.618;25.336;2022-11-11T18:19:43;50.67;;;39.87;;
30462;SDS011;17256;43.618;25.336;2022-11-11T18:23:34;58.47;;;44.13;;
30462;SDS011;17256;43.618;25.336;2022-11-11T18:27:17;39.80;;;31.47;;
30462;SDS011;17256;43.618;25.336;2022-11-11T18:30:16;33.67;;;25.93;;
30462;SDS011;17256;43.618;25.336;2022-11-11T18:33:05;28.23;;;25.23;;
30462;SDS011;17256;43.618;25.336;2022-11-11T18:36:02;28.27;;;24.23;;
30462;SDS011;17256;43.618;25.336;2022-11-11T18:43:00;22.67;;;19.00;;
30462;SDS011;17256;43.618;25.336;2022-11-11T18:50:32;40.37;;;27.03;;
30462;SDS011;17256;43.618;25.336;2022-11-11T18:57:48;20.43;;;16.90;;
30462;SDS011;17256;43.618;25.336;2022-11-11T19:00:34;14.87;;;13.33;;
30462;SDS011;17256;43.618;25.336;2022-11-11T19:07:06;16.30;;;14.40;;
30462;SDS011;17256;43.618;25.336;2022-11-11T19:09:52;16.97;;;14.97;;
30462;SDS011;17256;43.618;25.336;2022-11-11T19:12:40;25.17;;;19.17;;
30462;SDS011;17256;43.618;25.336;2022-11-11T19:15:26;22.67;;;17.60;;
30462;SDS011;17256;43.618;25.336;2022-11-11T19:18:15;16.93;;;15.13;;
30462;SDS011;17256;43.618;25.336;2022-11-11T19:21:15;15.37;;;13.30;;
30462;SDS011;17256;43.618;25.336;2022-11-11T19:24:17;18.03;;;15.50;;
30462;SDS011;17256;43.618;25.336;2022-11-11T19:27:06;17.90;;;16.10;;
30462;SDS011;17256;43.618;25.336;2022-11-11T19:33:35;19.17;;;15.90;;
30462;SDS011;17256;43.618;25.336;2022-11-11T19:36:23;18.07;;;15.60;;
30462;SDS011;17256;43.618;25.336;2022-11-11T19:39:14;17.93;;;13.60;;
30462;SDS011;17256;43.618;25.336;2022-11-11T19:42:01;14.03;;;12.53;;
30462;SDS011;17256;43.618;25.336;2022-11-11T19:48:23;17.67;;;14.40;;
30462;SDS011;17256;43.618;25.336;2022-11-11T19:51:28;15.57;;;13.97;;
30462;SDS011;17256;43.618;25.336;2022-11-11T19:58:02;12.83;;;9.67;;
30462;SDS011;17256;43.618;25.336;2022-11-11T20:00:50;17.57;;;12.20;;
30462;SDS011;17256;43.618;25.336;2022-11-11T20:03:45;30.83;;;17.67;;
30462;SDS011;17256;43.618;25.336;2022-11-11T20:06:59;24.73;;;18.97;;
30462;SDS011;17256;43.618;25.336;2022-11-11T20:09:46;17.70;;;15.87;;
30462;SDS011;17256;43.618;25.336;2022-11-11T20:16:50;12.50;;;11.27;;
30462;SDS011;17256;43.618;25.336;2022-11-11T20:19:41;15.33;;;13.73;;
30462;SDS011;17256;43.618;25.336;2022-11-11T20:22:30;17.30;;;15.30;;
30462;SDS011;17256;43.618;25.336;2022-11-11T20:27:55;14.23;;;12.83;;
30462;SDS011;17256;43.618;25.336;2022-11-11T20:34:36;13.43;;;12.13;;
30462;SDS011;17256;43.618;25.336;2022-11-11T20:37:27;13.20;;;11.80;;
30462;SDS011;17256;43.618;25.336;2022-11-11T20:40:12;22.53;;;20.13;;
30462;SDS011;17256;43.618;25.336;2022-11-11T20:43:00;19.10;;;16.73;;
30462;SDS011;17256;43.618;25.336;2022-11-11T20:45:46;18.93;;;14.73;;
30462;SDS011;17256;43.618;25.336;2022-11-11T20:48:35;15.50;;;12.87;;
30462;SDS011;17256;43.618;25.336;2022-11-11T20:55:04;11.77;;;9.83;;
30462;SDS011;17256;43.618;25.336;2022-11-11T20:57:48;12.27;;;10.40;;
30462;SDS011;17256;43.618;25.336;2022-11-11T21:00:37;24.93;;;11.93;;
30462;SDS011;17256;43.618;25.336;2022-11-11T21:03:22;13.60;;;12.27;;
30462;SDS011;17256;43.618;25.336;2022-11-11T21:06:12;13.23;;;11.90;;
30462;SDS011;17256;43.618;25.336;2022-11-11T21:09:00;12.40;;;11.10;;
30462;SDS011;17256;43.618;25.336;2022-11-11T21:11:52;13.20;;;11.00;;
30462;SDS011;17256;43.618;25.336;2022-11-11T21:14:45;11.90;;;10.13;;
30462;SDS011;17256;43.618;25.336;2022-11-11T21:17:36;13.50;;;11.33;;
30462;SDS011;17256;43.618;25.336;2022-11-11T21:20:21;12.33;;;10.27;;
30462;SDS011;17256;43.618;25.336;2022-11-11T21:23:07;11.80;;;10.70;;
30462;SDS011;17256;43.618;25.336;2022-11-11T21:25:52;12.73;;;11.07;;
30462;SDS011;17256;43.618;25.336;2022-11-11T21:28:43;12.87;;;10.60;;
30462;SDS011;17256;43.618;25.336;2022-11-11T21:31:34;12.37;;;10.97;;
30462;SDS011;17256;43.618;25.336;2022-11-11T21:34:26;11.73;;;10.07;;
30462;SDS011;17256;43.618;25.336;2022-11-11T21:41:08;11.67;;;9.77;;
30462;SDS011;17256;43.618;25.336;2022-11-11T21:43:59;9.80;;;8.83;;
30462;SDS011;17256;43.618;25.336;2022-11-11T21:46:46;11.53;;;10.13;;
30462;SDS011;17256;43.618;25.336;2022-11-11T21:49:32;12.20;;;10.43;;
30462;SDS011;17256;43.618;25.336;2022-11-11T21:52:17;12.30;;;9.70;;
30462;SDS011;17256;43.618;25.336;2022-11-11T21:55:04;10.87;;;9.53;;
30462;SDS011;17256;43.618;25.336;2022-11-11T21:57:50;12.00;;;10.77;;
30462;SDS011;17256;43.618;25.336;2022-11-11T22:00:34;11.00;;;9.43;;
30462;SDS011;17256;43.618;25.336;2022-11-11T22:03:19;11.23;;;9.87;;
30462;SDS011;17256;43.618;25.336;2022-11-11T22:09:59;9.27;;;8.27;;
30462;SDS011;17256;43.618;25.336;2022-11-11T22:12:45;12.30;;;8.63;;
30462;SDS011;17256;43.618;25.336;2022-11-11T22:15:29;10.90;;;8.60;;
30462;SDS011;17256;43.618;25.336;2022-11-11T22:18:14;10.87;;;9.10;;
30462;SDS011;17256;43.618;25.336;2022-11-11T22:21:02;9.63;;;8.70;;
30462;SDS011;17256;43.618;25.336;2022-11-11T22:23:57;10.40;;;8.67;;
30462;SDS011;17256;43.618;25.336;2022-11-11T22:26:46;10.50;;;9.30;;
30462;SDS011;17256;43.618;25.336;2022-11-11T22:29:30;11.60;;;10.43;;
30462;SDS011;17256;43.618;25.336;2022-11-11T22:32:15;10.17;;;9.13;;
30462;SDS011;17256;43.618;25.336;2022-11-11T22:34:59;10.57;;;9.13;;
30462;SDS011;17256;43.618;25.336;2022-11-11T22:37:45;12.47;;;9.27;;
30462;SDS011;17256;43.618;25.336;2022-11-11T22:40:30;11.00;;;9.67;;
30462;SDS011;17256;43.618;25.336;2022-11-11T22:43:15;15.07;;;12.33;;
30462;SDS011;17256;43.618;25.336;2022-11-11T22:46:00;15.03;;;12.40;;
30462;SDS011;17256;43.618;25.336;2022-11-11T22:48:49;15.53;;;12.17;;
30462;SDS011;17256;43.618;25.336;2022-11-11T22:51:41;14.57;;;11.47;;
30462;SDS011;17256;43.618;25.336;2022-11-11T22:54:29;20.40;;;14.93;;
30462;SDS011;17256;43.618;25.336;2022-11-11T22:57:13;20.07;;;16.00;;
30462;SDS011;17256;43.618;25.336;2022-11-11T22:59:58;21.27;;;17.20;;
30462;SDS011;17256;43.618;25.336;2022-11-11T23:02:42;21.37;;;16.57;;
30462;SDS011;17256;43.618;25.336;2022-11-11T23:05:27;23.87;;;17.27;;
30462;SDS011;17256;43.618;25.336;2022-11-11T23:08:12;26.90;;;18.77;;
30462;SDS011;17256;43.618;25.336;2022-11-11T23:11:02;21.47;;;17.57;;
30462;SDS011;17256;43.618;25.336;2022-11-11T23:13:51;22.70;;;18.57;;
30462;SDS011;17256;43.618;25.336;2022-11-11T23:16:46;26.33;;;18.27;;
30462;SDS011;17256;43.618;25.336;2022-11-11T23:19:31;28.23;;;20.57;;
30462;SDS011;17256;43.618;25.336;2022-11-11T23:22:17;25.40;;;19.23;;
30462;SDS011;17256;43.618;25.336;2022-11-11T23:28:06;23.93;;;18.23;;
30462;SDS011;17256;43.618;25.336;2022-11-11T23:30:50;23.83;;;18.23;;
30462;SDS011;17256;43.618;25.336;2022-11-11T23:33:39;23.57;;;18.73;;
30462;SDS011;17256;43.618;25.336;2022-11-11T23:36:31;24.17;;;19.43;;
30462;SDS011;17256;43.618;25.336;2022-11-11T23:39:16;24.50;;;20.03;;
30462;SDS011;17256;43.618;25.336;2022-11-11T23:42:01;29.23;;;20.73;;
30462;SDS011;17256;43.618;25.336;2022-11-11T23:44:46;27.57;;;22.20;;
30462;SDS011;17256;43.618;25.336;2022-11-11T23:47:33;29.20;;;21.17;;
30462;SDS011;17256;43.618;25.336;2022-11-11T23:50:17;29.47;;;23.23;;
30462;SDS011;17256;43.618;25.336;2022-11-11T23:53:03;32.43;;;23.30;;
30462;SDS011;17256;43.618;25.336;2022-11-11T23:55:48;31.67;;;24.07;;
30462;SDS011;17256;43.618;25.336;2022-11-11T23:58:33;33.23;;;24.70;;
